createdAt,value
2018-09-05T00:00:07.393Z,91.80
2018-09-05T00:02:10.924Z,91.50
2018-09-05T00:04:14.488Z,91.30
2018-09-05T00:06:18.007Z,91.50
2018-09-05T00:08:21.587Z,91.20
2018-09-05T00:10:25.131Z,91.60
2018-09-05T00:12:28.672Z,91.50
2018-09-05T00:14:32.231Z,91.50
2018-09-05T00:16:35.924Z,91.30
2018-09-05T00:18:39.563Z,91.10
2018-09-05T00:20:43.966Z,91.20
2018-09-05T00:22:47.509Z,91.30
2018-09-05T00:24:51.147Z,91.50
2018-09-05T00:26:54.735Z,91.60
2018-09-05T00:28:58.289Z,91.30
2018-09-05T00:31:01.967Z,91.20
2018-09-05T00:33:05.928Z,91.30
2018-09-05T00:35:09.670Z,90.80
2018-09-05T00:37:13.214Z,90.80
2018-09-05T00:39:17.054Z,90.60
2018-09-05T00:41:20.676Z,90.50
2018-09-05T00:43:24.317Z,90.60
2018-09-05T00:45:27.877Z,90.90
2018-09-05T00:47:31.460Z,90.90
2018-09-05T00:49:35.107Z,91.20
2018-09-05T00:51:38.768Z,91.10
2018-09-05T00:53:42.331Z,90.90
2018-09-05T00:55:45.968Z,91.00
2018-09-05T00:57:49.499Z,90.90
2018-09-05T00:59:53.107Z,90.90
2018-09-05T01:01:56.680Z,90.70
2018-09-05T01:04:00.295Z,90.90
2018-09-05T01:06:03.877Z,91.20
2018-09-05T01:08:07.404Z,91.30
2018-09-05T01:10:10.960Z,91.00
2018-09-05T01:12:14.510Z,91.10
2018-09-05T01:14:18.077Z,91.40
2018-09-05T01:16:21.591Z,91.40
2018-09-05T01:18:25.200Z,91.20
2018-09-05T01:20:29.089Z,91.10
2018-09-05T01:22:32.644Z,91.30
2018-09-05T01:24:36.347Z,91.30
2018-09-05T01:26:39.883Z,91.70
2018-09-05T01:28:43.443Z,91.60
2018-09-05T01:30:46.977Z,91.70
2018-09-05T01:32:50.604Z,91.80
2018-09-05T01:34:54.118Z,91.80
2018-09-05T01:36:57.711Z,91.70
2018-09-05T01:39:01.595Z,91.50
2018-09-05T01:41:05.243Z,91.60
2018-09-05T01:43:08.808Z,91.80
2018-09-05T01:45:12.616Z,91.70
2018-09-05T01:47:16.348Z,91.50
2018-09-05T01:49:20.142Z,91.30
2018-09-05T01:51:23.685Z,91.20
2018-09-05T01:53:27.231Z,91.10
2018-09-05T01:55:30.961Z,91.10
2018-09-05T01:57:34.511Z,90.90
2018-09-05T01:59:38.498Z,90.90
2018-09-05T02:01:42.053Z,90.70
2018-09-05T02:03:45.699Z,90.80
2018-09-05T02:05:49.318Z,91.10
2018-09-05T02:07:53.080Z,91.30
2018-09-05T02:09:56.824Z,91.40
2018-09-05T02:12:00.388Z,91.10
2018-09-05T02:14:03.971Z,91.10
2018-09-05T02:16:07.608Z,91.20
2018-09-05T02:18:11.226Z,91.50
2018-09-05T02:20:14.921Z,91.90
2018-09-05T02:22:18.455Z,92.30
2018-09-05T02:24:21.988Z,92.70
2018-09-05T02:26:25.640Z,92.90
2018-09-05T02:28:29.195Z,93.50
2018-09-05T02:30:32.717Z,93.50
2018-09-05T02:32:36.494Z,93.70
2018-09-05T02:34:40.009Z,93.70
2018-09-05T02:36:43.864Z,93.30
2018-09-05T02:38:47.437Z,93.00
2018-09-05T02:40:51.603Z,93.00
2018-09-05T02:42:55.206Z,93.40
2018-09-05T02:44:58.775Z,93.30
2018-09-05T02:47:02.362Z,93.00
2018-09-05T02:49:06.007Z,92.60
2018-09-05T02:51:09.722Z,92.30
2018-09-05T02:53:13.399Z,92.10
2018-09-05T02:55:22.185Z,92.00
2018-09-05T02:57:25.775Z,91.70
2018-09-05T02:59:29.298Z,92.00
2018-09-05T03:01:32.799Z,92.00
2018-09-05T03:03:36.347Z,92.20
2018-09-05T03:05:39.908Z,92.80
2018-09-05T03:07:43.437Z,93.30
2018-09-05T03:09:47.039Z,93.00
2018-09-05T03:11:50.706Z,93.40
2018-09-05T03:13:54.220Z,94.10
2018-09-05T03:15:57.732Z,95.10
2018-09-05T03:18:01.266Z,95.60
2018-09-05T03:20:05.008Z,95.60
2018-09-05T03:22:08.687Z,95.60
2018-09-05T03:24:12.387Z,96.20
2018-09-05T03:26:16.040Z,96.00
2018-09-05T03:28:19.646Z,95.70
2018-09-05T03:30:23.225Z,94.90
2018-09-05T03:32:28.094Z,94.40
2018-09-05T03:34:31.694Z,94.00
2018-09-05T03:36:35.222Z,93.70
2018-09-05T03:38:38.847Z,93.40
2018-09-05T03:40:42.663Z,92.90
2018-09-05T03:42:46.228Z,92.70
2018-09-05T03:44:49.761Z,92.70
2018-09-05T03:46:53.528Z,93.30
2018-09-05T03:48:57.096Z,93.30
2018-09-05T03:51:00.648Z,93.10
2018-09-05T03:53:04.288Z,92.70
2018-09-05T03:55:07.865Z,92.70
2018-09-05T03:57:11.584Z,92.90
2018-09-05T03:59:15.120Z,92.80
2018-09-05T04:01:18.850Z,93.20
2018-09-05T04:03:22.367Z,93.20
2018-09-05T04:05:25.918Z,93.80
2018-09-05T04:07:29.865Z,93.80
2018-09-05T04:09:33.419Z,93.70
2018-09-05T04:11:37.260Z,94.20
2018-09-05T04:13:40.784Z,94.10
2018-09-05T04:15:44.402Z,94.20
2018-09-05T04:17:48.016Z,94.40
2018-09-05T04:19:52.001Z,94.60
2018-09-05T04:21:55.551Z,94.30
2018-09-05T04:23:59.124Z,94.60
2018-09-05T04:26:02.666Z,94.70
2018-09-05T04:28:06.288Z,94.30
2018-09-05T04:30:09.892Z,93.70
2018-09-05T04:32:13.642Z,94.10
2018-09-05T04:34:17.203Z,93.90
2018-09-05T04:36:22.314Z,93.60
2018-09-05T04:38:25.975Z,93.30
2018-09-05T04:40:29.646Z,93.40
2018-09-05T04:42:33.204Z,93.80
2018-09-05T04:44:36.833Z,93.90
2018-09-05T04:46:40.404Z,94.30
2018-09-05T04:48:43.887Z,94.20
2018-09-05T04:50:47.404Z,94.20
2018-09-05T04:52:50.904Z,94.40
2018-09-05T04:54:54.449Z,94.20
2018-09-05T04:56:57.997Z,94.00
2018-09-05T04:59:01.509Z,93.70
2018-09-05T05:01:05.226Z,94.30
2018-09-05T05:03:08.800Z,94.20
2018-09-05T05:05:12.387Z,94.10
2018-09-05T05:07:15.883Z,94.00
2018-09-05T05:09:19.572Z,94.70
2018-09-05T05:11:23.119Z,94.60
2018-09-05T05:13:26.633Z,94.40
2018-09-05T05:15:30.366Z,94.80
2018-09-05T05:17:33.847Z,95.60
2018-09-05T05:19:37.347Z,95.60
2018-09-05T05:21:40.889Z,96.00
2018-09-05T05:23:44.468Z,95.70
2018-09-05T05:25:48.092Z,95.20
2018-09-05T05:27:51.701Z,95.10
2018-09-05T05:29:55.240Z,95.00
2018-09-05T05:31:58.791Z,95.60
2018-09-05T05:34:02.320Z,95.50
2018-09-05T05:36:05.852Z,96.40
2018-09-05T05:38:09.439Z,96.30
2018-09-05T05:40:13.921Z,95.50
2018-09-05T05:42:17.499Z,95.20
2018-09-05T05:44:21.117Z,94.60
2018-09-05T05:46:24.772Z,94.60
2018-09-05T05:48:28.293Z,94.40
2018-09-05T05:50:31.847Z,94.50
2018-09-05T05:52:35.460Z,94.30
2018-09-05T05:54:38.997Z,94.10
2018-09-05T05:56:42.586Z,93.70
2018-09-05T05:58:46.108Z,93.50
2018-09-05T06:00:49.663Z,93.60
2018-09-05T06:02:54.031Z,93.70
2018-09-05T06:04:57.542Z,93.70
2018-09-05T06:07:01.056Z,93.80
2018-09-05T06:09:06.848Z,93.90
2018-09-05T06:11:10.587Z,93.90
2018-09-05T06:13:14.239Z,93.70
2018-09-05T06:15:17.776Z,93.30
2018-09-05T06:17:21.456Z,93.10
2018-09-05T06:19:25.011Z,92.80
2018-09-05T06:21:28.573Z,92.80
2018-09-05T06:23:32.160Z,92.80
2018-09-05T06:25:35.671Z,93.10
2018-09-05T06:27:45.584Z,93.10
2018-09-05T06:29:49.072Z,92.90
2018-09-05T06:32:22.554Z,92.80
2018-09-05T06:34:26.211Z,92.80
2018-09-05T06:36:29.828Z,93.00
2018-09-05T06:38:33.348Z,93.70
2018-09-05T06:40:36.864Z,94.10
2018-09-05T06:42:40.443Z,94.00
2018-09-05T06:44:44.037Z,93.50
2018-09-05T06:46:47.567Z,93.40
2018-09-05T06:48:51.136Z,93.00
2018-09-05T06:50:59.909Z,92.90
2018-09-05T06:53:03.505Z,92.90
2018-09-05T06:55:07.341Z,93.40
2018-09-05T06:57:10.868Z,93.70
2018-09-05T06:59:14.372Z,94.00
2018-09-05T07:01:18.037Z,94.50
2018-09-05T07:03:22.059Z,95.00
2018-09-05T07:05:25.703Z,94.60
2018-09-05T07:07:29.580Z,94.10
2018-09-05T07:09:33.083Z,94.30
2018-09-05T07:11:37.743Z,94.90
2018-09-05T07:13:41.254Z,94.50
2018-09-05T07:15:44.905Z,94.60
2018-09-05T07:17:48.487Z,94.00
2018-09-05T07:19:52.122Z,93.30
2018-09-05T07:21:55.771Z,92.80
2018-09-05T07:23:59.291Z,92.70
2018-09-05T07:26:02.844Z,92.40
2018-09-05T07:28:06.347Z,92.70
2018-09-05T07:30:10.123Z,93.10
2018-09-05T07:32:13.643Z,92.80
2018-09-05T07:34:17.244Z,92.70
2018-09-05T07:36:20.892Z,92.90
2018-09-05T07:38:24.580Z,93.80
2018-09-05T07:40:28.201Z,94.60
2018-09-05T07:42:31.700Z,94.10
2018-09-05T07:44:35.309Z,93.70
2018-09-05T07:46:38.868Z,93.70
2018-09-05T07:48:42.462Z,94.10
2018-09-05T07:50:46.062Z,94.50
2018-09-05T07:52:49.607Z,94.00
2018-09-05T07:54:53.201Z,93.50
2018-09-05T07:56:56.759Z,93.90
2018-09-05T07:59:00.460Z,93.30
2018-09-05T08:01:04.014Z,93.20
2018-09-05T08:03:07.495Z,93.00
2018-09-05T08:05:11.019Z,92.90
2018-09-05T08:07:14.611Z,93.00
2018-09-05T08:09:18.180Z,92.80
2018-09-05T08:11:21.762Z,92.70
2018-09-05T08:13:25.447Z,92.40
2018-09-05T08:15:30.471Z,92.40
2018-09-05T08:17:34.007Z,92.40
2018-09-05T08:19:37.599Z,92.40
2018-09-05T08:21:41.148Z,92.20
2018-09-05T08:23:44.666Z,92.40
2018-09-05T08:25:48.284Z,92.20
2018-09-05T08:27:51.806Z,92.30
2018-09-05T08:29:55.360Z,92.30
2018-09-05T08:31:59.015Z,92.30
2018-09-05T08:34:02.558Z,92.60
2018-09-05T08:36:06.507Z,92.60
2018-09-05T08:38:09.805Z,92.40
2018-09-05T08:40:14.207Z,91.70
2018-09-05T08:42:17.868Z,91.30
2018-09-05T08:44:21.426Z,91.40
2018-09-05T08:46:24.860Z,91.30
2018-09-05T08:48:28.801Z,91.50
2018-09-05T08:50:32.108Z,91.50
2018-09-05T08:52:35.614Z,91.60
2018-09-05T08:54:39.106Z,91.50
2018-09-05T08:56:42.693Z,91.20
2018-09-05T08:58:46.655Z,91.20
2018-09-05T09:00:50.099Z,90.80
2018-09-05T09:02:53.783Z,91.00
2018-09-05T09:04:57.300Z,91.00
2018-09-05T09:07:00.829Z,91.20
2018-09-05T09:09:06.611Z,91.70
2018-09-05T09:11:10.158Z,92.50
2018-09-05T09:13:13.713Z,91.60
2018-09-05T09:15:17.232Z,91.10
2018-09-05T09:17:20.826Z,90.60
2018-09-05T09:19:24.592Z,90.80
2018-09-05T09:21:34.713Z,91.00
2018-09-05T09:23:38.191Z,90.80
2018-09-05T09:25:42.400Z,90.90
2018-09-05T09:27:46.037Z,90.30
2018-09-05T09:29:49.609Z,90.10
2018-09-05T09:31:53.131Z,90.20
2018-09-05T09:33:56.785Z,90.80
2018-09-05T09:36:00.536Z,90.60
2018-09-05T09:38:04.146Z,90.20
2018-09-05T09:40:07.836Z,90.60
2018-09-05T09:42:11.360Z,90.80
2018-09-05T09:44:14.972Z,90.90
2018-09-05T09:46:18.931Z,90.30
2018-09-05T09:48:22.500Z,89.50
2018-09-05T09:50:26.019Z,90.00
2018-09-05T09:52:29.533Z,90.60
2018-09-05T09:54:33.387Z,90.80
2018-09-05T09:56:36.985Z,89.20
2018-09-05T09:58:40.540Z,90.80
2018-09-05T10:00:49.482Z,90.20
2018-09-05T10:02:58.359Z,90.00
2018-09-05T10:05:07.201Z,89.10
2018-09-05T10:07:16.265Z,88.00
2018-09-05T10:09:24.922Z,88.10
2018-09-05T10:11:33.655Z,90.00
2018-09-05T10:13:42.325Z,88.90
2018-09-05T10:15:51.338Z,88.80
2018-09-05T10:18:00.303Z,88.30
2018-09-05T10:20:04.061Z,89.60
2018-09-05T10:22:07.698Z,88.90
2018-09-05T10:24:11.196Z,89.40
2018-09-05T10:26:14.883Z,90.10
2018-09-05T10:28:18.678Z,90.70
2018-09-05T10:30:22.232Z,90.50
2018-09-05T10:32:26.193Z,89.60
2018-09-05T10:34:29.782Z,90.20
2018-09-05T10:36:33.392Z,90.10
2018-09-05T10:38:36.960Z,90.10
2018-09-05T10:40:40.493Z,90.60
2018-09-05T10:42:44.116Z,90.30
2018-09-05T10:44:47.612Z,90.30
2018-09-05T10:46:51.115Z,90.50
2018-09-05T10:48:54.640Z,90.70
2018-09-05T10:50:58.257Z,90.20
2018-09-05T10:53:01.897Z,88.30
2018-09-05T10:55:05.441Z,89.40
2018-09-05T10:57:09.528Z,89.40
2018-09-05T10:59:13.024Z,89.20
2018-09-05T11:01:16.701Z,89.10
2018-09-05T11:03:20.313Z,90.30
2018-09-05T11:05:23.836Z,90.00
2018-09-05T11:07:28.082Z,90.30
2018-09-05T11:09:31.585Z,90.20
2018-09-05T11:11:35.131Z,89.50
2018-09-05T11:13:38.685Z,86.80
2018-09-05T11:15:42.180Z,87.00
2018-09-05T11:17:45.867Z,86.70
2018-09-05T11:19:49.363Z,86.20
2018-09-05T11:21:52.868Z,87.50
2018-09-05T11:23:56.367Z,87.10
2018-09-05T11:26:00.064Z,88.40
2018-09-05T11:28:03.700Z,86.70
2018-09-05T11:30:07.283Z,86.90
2018-09-05T11:32:10.887Z,88.20
2018-09-05T11:34:14.626Z,87.80
2018-09-05T11:36:18.208Z,86.80
2018-09-05T11:38:21.813Z,87.20
2018-09-05T11:40:25.391Z,86.60
2018-09-05T11:42:29.083Z,87.00
2018-09-05T11:44:32.611Z,85.40
2018-09-05T11:46:36.566Z,86.30
2018-09-05T11:48:40.094Z,87.50
2018-09-05T11:50:43.603Z,87.80
2018-09-05T11:52:47.205Z,86.20
2018-09-05T11:54:50.747Z,84.80
2018-09-05T11:56:54.240Z,82.90
2018-09-05T11:58:57.808Z,82.80
2018-09-05T12:01:01.395Z,82.30
2018-09-05T12:03:04.968Z,81.30
2018-09-05T12:05:08.590Z,81.60
2018-09-05T12:07:12.688Z,81.60
2018-09-05T12:09:16.256Z,82.50
2018-09-05T12:11:20.124Z,81.40
2018-09-05T12:13:23.728Z,81.40
2018-09-05T12:15:27.539Z,82.40
2018-09-05T12:17:31.073Z,82.20
2018-09-05T12:19:34.576Z,84.50
2018-09-05T12:21:38.079Z,84.20
2018-09-05T12:23:41.728Z,82.80
2018-09-05T12:25:45.295Z,82.30
2018-09-05T12:27:48.839Z,83.30
2018-09-05T12:29:52.351Z,82.80
2018-09-05T12:31:55.869Z,80.70
2018-09-05T12:33:59.417Z,79.70
2018-09-05T12:36:03.131Z,79.60
2018-09-05T12:38:06.634Z,81.10
2018-09-05T12:40:10.276Z,81.10
2018-09-05T12:42:13.789Z,79.00
2018-09-05T12:44:17.339Z,79.60
2018-09-05T12:46:20.999Z,79.10
2018-09-05T12:48:24.819Z,78.20
2018-09-05T12:50:28.419Z,78.90
2018-09-05T12:52:31.966Z,78.80
2018-09-05T12:54:35.558Z,76.70
2018-09-05T12:56:39.071Z,77.00
2018-09-05T12:58:42.657Z,77.30
2018-09-05T13:00:46.335Z,77.00
2018-09-05T13:02:49.835Z,77.30
2018-09-05T13:04:53.442Z,76.00
2018-09-05T13:06:56.931Z,74.10
2018-09-05T13:09:00.588Z,74.70
2018-09-05T13:11:04.099Z,73.10
2018-09-05T13:13:07.601Z,73.00
2018-09-05T13:15:11.198Z,74.10
2018-09-05T13:17:14.758Z,75.00
2018-09-05T13:19:18.295Z,75.00
2018-09-05T13:21:21.780Z,74.60
2018-09-05T13:23:25.505Z,73.70
2018-09-05T13:25:29.392Z,73.30
2018-09-05T13:27:35.957Z,72.90
2018-09-05T13:29:39.682Z,72.00
2018-09-05T13:31:43.237Z,70.90
2018-09-05T13:33:46.726Z,70.10
2018-09-05T13:35:50.447Z,71.50
2018-09-05T13:37:53.926Z,71.60
2018-09-05T13:39:58.899Z,71.70
2018-09-05T13:42:02.451Z,70.90
2018-09-05T13:44:06.064Z,70.80
2018-09-05T13:46:09.890Z,70.00
2018-09-05T13:48:13.399Z,71.60
2018-09-05T13:50:17.035Z,72.70
2018-09-05T13:52:20.640Z,72.60
2018-09-05T13:54:24.357Z,71.40
2018-09-05T13:56:27.989Z,71.30
2018-09-05T13:58:31.968Z,71.90
2018-09-05T14:00:35.566Z,72.10
2018-09-05T14:02:39.154Z,73.10
2018-09-05T14:04:42.769Z,72.40
2018-09-05T14:06:46.277Z,70.10
2018-09-05T14:08:49.795Z,70.40
2018-09-05T14:10:53.319Z,71.40
2018-09-05T14:12:56.966Z,70.10
2018-09-05T14:15:00.467Z,70.60
2018-09-05T14:17:03.979Z,70.10
2018-09-05T14:19:07.536Z,70.50
2018-09-05T14:21:11.068Z,69.90
2018-09-05T14:23:14.699Z,69.00
2018-09-05T14:25:18.222Z,69.60
2018-09-05T14:27:21.785Z,68.20
2018-09-05T14:29:25.239Z,68.70
2018-09-05T14:31:28.829Z,68.40
2018-09-05T14:33:33.216Z,68.00
2018-09-05T14:35:36.724Z,68.70
2018-09-05T14:37:40.229Z,68.90
2018-09-05T14:39:43.843Z,67.90
2018-09-05T14:41:47.346Z,68.00
2018-09-05T14:43:50.818Z,68.10
2018-09-05T14:45:54.367Z,67.60
2018-09-05T14:47:57.895Z,68.00
2018-09-05T14:50:01.556Z,67.40
2018-09-05T14:52:05.154Z,68.10
2018-09-05T14:54:08.964Z,69.00
2018-09-05T14:56:12.348Z,68.90
2018-09-05T14:58:15.918Z,69.60
2018-09-05T15:00:19.488Z,70.00
2018-09-05T15:02:23.032Z,69.50
2018-09-05T15:04:26.603Z,68.70
2018-09-05T15:06:30.479Z,69.30
2018-09-05T15:08:33.934Z,68.10
2018-09-05T15:10:37.488Z,69.40
2018-09-05T15:12:40.977Z,69.10
2018-09-05T15:14:44.496Z,68.40
2018-09-05T15:16:48.107Z,68.40
2018-09-05T15:18:51.753Z,68.60
2018-09-05T15:20:55.468Z,68.00
2018-09-05T15:22:58.960Z,68.40
2018-09-05T15:25:02.484Z,68.00
2018-09-05T15:29:35.112Z,68.50
2018-09-05T15:31:38.743Z,68.30
2018-09-05T15:33:42.332Z,69.00
2018-09-05T15:35:46.488Z,70.20
2018-09-05T15:37:50.012Z,68.80
2018-09-05T15:39:53.587Z,68.60
2018-09-05T15:41:57.291Z,69.20
2018-09-05T15:44:00.851Z,69.00
2018-09-05T15:46:04.551Z,69.30
2018-09-05T15:48:08.068Z,69.20
2018-09-05T15:50:11.728Z,68.70
2018-09-05T15:52:15.276Z,67.90
2018-09-05T15:54:18.844Z,69.00
2018-09-05T15:56:22.663Z,70.00
2018-09-05T15:58:26.262Z,70.30
2018-09-05T16:00:29.835Z,69.70
2018-09-05T16:02:33.351Z,69.40
2018-09-05T16:04:36.874Z,69.30
2018-09-05T16:06:40.428Z,70.10
2018-09-05T16:08:45.145Z,69.80
2018-09-05T16:10:48.667Z,70.50
2018-09-05T16:12:52.440Z,70.40
2018-09-05T16:14:56.113Z,69.70
2018-09-05T16:16:59.662Z,69.90
2018-09-05T16:19:03.187Z,70.20
2018-09-05T16:23:22.179Z,69.30
2018-09-05T16:25:25.775Z,70.50
2018-09-05T16:27:29.384Z,70.80
2018-09-05T16:29:32.963Z,70.60
2018-09-05T16:31:36.500Z,71.70
2018-09-05T16:33:40.135Z,71.80
2018-09-05T16:35:43.708Z,72.10
2018-09-05T16:37:47.200Z,72.00
2018-09-05T16:39:50.751Z,71.70
2018-09-05T16:41:54.457Z,71.40
2018-09-05T16:43:58.146Z,71.80
2018-09-05T16:46:01.768Z,71.50
2018-09-05T16:48:05.587Z,71.70
2018-09-05T16:50:09.120Z,72.20
2018-09-05T16:52:12.891Z,72.60
2018-09-05T16:54:16.399Z,72.50
2018-09-05T16:56:20.447Z,72.40
2018-09-05T16:58:23.970Z,72.40
2018-09-05T17:00:27.727Z,72.90
2018-09-05T17:02:31.273Z,73.00
2018-09-05T17:04:34.876Z,73.20
2018-09-05T17:06:45.060Z,73.10
2018-09-05T17:08:48.640Z,73.70
2018-09-05T17:10:52.271Z,73.60
2018-09-05T17:12:55.816Z,74.30
2018-09-05T17:14:59.357Z,73.80
2018-09-05T17:17:03.356Z,73.70
2018-09-05T17:19:06.948Z,74.20
2018-09-05T17:21:10.588Z,74.30
2018-09-05T17:23:14.487Z,74.60
2018-09-05T17:25:18.173Z,74.80
2018-09-05T17:27:21.700Z,76.00
2018-09-05T17:29:25.224Z,76.00
2018-09-05T17:31:28.767Z,76.30
2018-09-05T17:33:32.268Z,76.60
2018-09-05T17:35:36.191Z,76.80
2018-09-05T17:37:39.716Z,77.20
2018-09-05T17:39:43.303Z,77.30
2018-09-05T17:41:47.040Z,77.70
2018-09-05T17:43:50.565Z,78.10
2018-09-05T17:45:54.276Z,78.60
2018-09-05T17:47:57.824Z,78.70
2018-09-05T17:50:01.611Z,79.10
2018-09-05T17:52:05.272Z,79.40
2018-09-05T17:54:08.922Z,79.70
2018-09-05T17:56:12.593Z,80.10
2018-09-05T17:58:16.294Z,80.30
2018-09-05T18:00:19.923Z,80.90
2018-09-05T18:02:23.613Z,81.10
2018-09-05T18:04:27.519Z,81.70
2018-09-05T18:06:31.103Z,81.90
2018-09-05T18:08:34.995Z,81.80
2018-09-05T18:10:38.713Z,82.00
2018-09-05T18:12:42.402Z,82.40
2018-09-05T18:14:46.193Z,82.50
2018-09-05T18:16:49.994Z,83.10
2018-09-05T18:18:53.629Z,83.20
2018-09-05T18:20:57.232Z,83.40
2018-09-05T18:23:01.070Z,83.50
2018-09-05T18:25:04.843Z,83.70
2018-09-05T18:27:08.607Z,83.70
2018-09-05T18:29:12.293Z,83.90
2018-09-05T18:31:16.172Z,83.80
2018-09-05T18:33:19.861Z,84.20
2018-09-05T18:35:23.495Z,84.30
2018-09-05T18:37:27.224Z,84.50
2018-09-05T18:39:31.024Z,84.60
2018-09-05T18:41:34.636Z,84.80
2018-09-05T18:43:38.321Z,84.90
2018-09-05T18:45:41.970Z,85.00
2018-09-05T18:47:45.639Z,85.30
2018-09-05T18:49:49.202Z,85.40
2018-09-05T18:51:53.134Z,85.40
2018-09-05T18:53:56.771Z,85.50
2018-09-05T18:56:01.104Z,85.70
2018-09-05T18:58:05.028Z,86.00
2018-09-05T19:00:08.716Z,86.10
2018-09-05T19:02:12.570Z,86.20
2018-09-05T19:04:16.329Z,86.40
2018-09-05T19:06:19.921Z,86.50
2018-09-05T19:08:23.600Z,86.80
2018-09-05T19:10:27.151Z,86.80
2018-09-05T19:12:30.705Z,86.90
2018-09-05T19:14:34.457Z,87.00
2018-09-05T19:16:38.344Z,87.00
2018-09-05T19:18:42.006Z,87.50
2018-09-05T19:20:45.860Z,87.40
2018-09-05T19:22:49.568Z,87.50
2018-09-05T19:24:53.239Z,87.60
2018-09-05T19:26:56.804Z,88.60
2018-09-05T19:29:00.362Z,88.40
2018-09-05T19:31:03.962Z,88.30
2018-09-05T19:33:07.749Z,88.30
2018-09-05T19:35:11.326Z,88.10
2018-09-05T19:37:15.040Z,88.30
2018-09-05T19:39:18.599Z,88.30
2018-09-05T19:41:22.718Z,88.40
2018-09-05T19:43:26.267Z,88.60
2018-09-05T19:45:29.964Z,88.70
2018-09-05T19:47:33.931Z,89.00
2018-09-05T19:49:37.744Z,89.70
2018-09-05T19:51:41.304Z,89.30
2018-09-05T19:53:45.085Z,89.20
2018-09-05T19:55:48.644Z,89.20
2018-09-05T19:57:52.407Z,89.10
2018-09-05T19:59:55.979Z,89.10
2018-09-05T20:01:59.640Z,88.90
2018-09-05T20:04:03.230Z,89.00
2018-09-05T20:06:07.066Z,88.90
2018-09-05T20:08:10.602Z,89.00
2018-09-05T20:10:14.168Z,89.50
2018-09-05T20:12:17.845Z,89.50
2018-09-05T20:14:21.544Z,89.60
2018-09-05T20:16:25.102Z,89.50
2018-09-05T20:18:28.745Z,89.80
2018-09-05T20:20:32.269Z,89.90
2018-09-05T20:22:35.836Z,90.20
2018-09-05T20:24:39.640Z,90.20
2018-09-05T20:26:43.192Z,90.20
2018-09-05T20:28:46.728Z,90.10
2018-09-05T20:30:50.538Z,90.10
2018-09-05T20:32:54.195Z,90.30
2018-09-05T20:34:57.971Z,90.20
2018-09-05T20:37:01.584Z,90.20
2018-09-05T20:39:08.130Z,90.10
2018-09-05T20:41:11.727Z,90.20
2018-09-05T20:43:15.590Z,90.20
2018-09-05T20:45:19.124Z,90.20
2018-09-05T20:47:22.671Z,90.10
2018-09-05T20:49:26.194Z,90.10
2018-09-05T20:51:29.946Z,90.20
2018-09-05T20:53:33.528Z,90.20
2018-09-05T20:55:37.036Z,90.40
2018-09-05T20:57:40.712Z,91.10
2018-09-05T20:59:44.242Z,91.10
2018-09-05T21:01:47.848Z,90.90
2018-09-05T21:03:57.805Z,90.80
2018-09-05T21:06:01.778Z,90.60
2018-09-05T21:08:05.480Z,90.50
2018-09-05T21:10:09.196Z,90.30
2018-09-05T21:12:12.885Z,90.20
2018-09-05T21:14:16.412Z,90.10
2018-09-05T21:16:20.040Z,90.20
2018-09-05T21:18:23.674Z,90.20
2018-09-05T21:20:27.235Z,90.30
2018-09-05T21:22:30.891Z,90.70
2018-09-05T21:24:34.475Z,91.00
2018-09-05T21:26:38.218Z,91.00
2018-09-05T21:28:41.768Z,90.90
2018-09-05T21:30:45.303Z,90.70
2018-09-05T21:32:49.164Z,90.60
2018-09-05T21:34:52.789Z,90.60
2018-09-05T21:36:56.399Z,90.50
2018-09-05T21:38:59.972Z,90.50
2018-09-05T21:41:03.514Z,90.60
2018-09-05T21:43:07.159Z,90.60
2018-09-05T21:45:10.734Z,90.70
2018-09-05T21:47:14.339Z,90.60
2018-09-05T21:49:17.875Z,90.70
2018-09-05T21:51:21.414Z,90.70
2018-09-05T21:53:25.073Z,90.70
2018-09-05T21:55:28.672Z,90.60
2018-09-05T21:57:32.244Z,90.40
2018-09-05T21:59:35.932Z,90.30
2018-09-05T22:01:39.480Z,90.30
2018-09-05T22:03:43.165Z,90.20
2018-09-05T22:05:46.736Z,90.10
2018-09-05T22:07:50.358Z,90.20
2018-09-05T22:09:53.897Z,90.60
2018-09-05T22:11:57.476Z,90.50
2018-09-05T22:14:01.090Z,90.60
2018-09-05T22:16:04.654Z,90.50
2018-09-05T22:18:08.234Z,90.40
2018-09-05T22:20:12.039Z,90.30
2018-09-05T22:22:15.582Z,90.50
2018-09-05T22:24:19.339Z,90.40
2018-09-05T22:26:22.896Z,90.90
2018-09-05T22:28:26.435Z,90.70
2018-09-05T22:30:30.705Z,90.40
2018-09-05T22:32:34.323Z,90.30
2018-09-05T22:34:37.850Z,90.40
2018-09-05T22:36:42.085Z,90.20
2018-09-05T22:38:45.726Z,90.30
2018-09-05T22:40:55.162Z,90.30
2018-09-05T22:43:10.532Z,90.20
2018-09-05T22:45:25.378Z,90.70
2018-09-05T22:47:41.837Z,91.10
2018-09-05T22:50:02.634Z,91.00
2018-09-05T22:52:27.653Z,91.10
2018-09-05T22:55:50.459Z,91.00
2018-09-05T22:58:10.802Z,90.80
2018-09-05T23:00:26.661Z,90.90
2018-09-05T23:03:23.159Z,91.00
2018-09-05T23:06:44.287Z,90.70
2018-09-05T23:08:47.820Z,90.90
2018-09-05T23:11:02.638Z,91.30
2018-09-05T23:13:17.519Z,91.30
2018-09-05T23:15:32.305Z,90.90
2018-09-05T23:17:47.091Z,90.60
2018-09-05T23:20:09.553Z,90.60
2018-09-05T23:22:13.104Z,90.80
2018-09-05T23:24:16.696Z,90.70
2018-09-05T23:26:20.303Z,90.50
2018-09-05T23:28:23.823Z,90.50
2018-09-05T23:30:27.489Z,90.50
2018-09-05T23:32:31.121Z,90.50
2018-09-05T23:34:34.682Z,90.50
2018-09-05T23:36:38.325Z,90.70
2018-09-05T23:38:41.961Z,90.50
2018-09-05T23:40:45.612Z,90.40
2018-09-05T23:42:49.151Z,90.30
2018-09-05T23:44:52.926Z,90.20
2018-09-05T23:46:56.548Z,90.60
2018-09-05T23:49:00.165Z,90.60
2018-09-05T23:51:03.753Z,90.70
2018-09-05T23:53:07.298Z,90.60
2018-09-05T23:55:10.821Z,90.40
2018-09-05T23:57:14.540Z,90.20
2018-09-05T23:59:18.119Z,90.00
